Hamburg, Arkansas
Current Conditions -  °F | °C
As of 4:53 AM on Sunday 23 Nov 2014 (Local Time) from KLLQ Reporting Station
Overcast Overcast  
Wind Chill: 58°   Ceiling: 1000
Heat Index: 58°   Visibility: 10mi
Dew Point: 55°   Wind: 6mph
Humidity: 90%   Direction: 120°ESE
Pressure: 29.72"   Gusts: NA
Location:  33.23°N, 91.8°W
Report Text: KLLQ 231053Z AUTO 12005KT 10SM OVC010 14/13 A2972 RMK AO2 RAE0959 CIG 007V011 SLP061 P0000 T01440128
Loading
Personal Weather Stations






























Interactive Weather Map New forecast layout! Learn more

10-Day Weather Forecast

Advertisements
Track Severe Weather on mobile